Time;durP1;ratioP1;P1;durP2;ratioP2;P2;SDS_P1;SDS_P2;PMS_P1;PMS_P2;Temp;Humidity;BMP_temperature;BMP_pressure;BME280_temperature;BME280_humidity;BME280_pressure;Samples;Min_cycle;Max_cycle;Signal;HPM_P1;HPM_P2
2022/05/06 00:00:13;;;;;;;31.30;21.88;;;12.00;38.80;;;;;;7380451;19;20010;-64
2022/05/06 00:02:45;;;;;;;31.20;22.20;;;12.00;38.80;;;;;;7361709;19;20093;-64
2022/05/06 00:05:15;;;;;;;35.15;22.27;;;12.10;39.00;;;;;;7361916;19;20014;-64
2022/05/06 00:07:45;;;;;;;36.35;22.10;;;12.10;37.90;;;;;;7363136;19;20017;-64
2022/05/06 00:10:15;;;;;;;31.77;21.23;;;12.00;38.80;;;;;;7356237;19;20014;-64
2022/05/06 00:12:45;;;;;;;35.63;21.85;;;12.10;38.30;;;;;;7361745;19;20070;-64
2022/05/06 00:15:15;;;;;;;29.38;21.20;;;12.00;38.40;;;;;;7383488;19;20061;-64
2022/05/06 00:17:47;;;;;;;29.52;20.95;;;12.10;38.30;;;;;;7363363;19;20018;-64
2022/05/06 00:20:17;;;;;;;30.27;22.05;;;12.00;38.80;;;;;;7356577;19;20576;-64
2022/05/06 00:22:47;;;;;;;31.00;21.60;;;12.00;37.90;;;;;;7361894;19;20019;-64
2022/05/06 00:25:17;;;;;;;36.80;21.48;;;12.10;36.80;;;;;;7362491;19;20010;-64
2022/05/06 00:27:47;;;;;;;30.83;20.90;;;12.10;37.00;;;;;;7362925;19;20018;-64
2022/05/06 00:30:17;;;;;;;32.13;21.25;;;12.10;36.50;;;;;;7377696;19;20015;-64
2022/05/06 00:32:49;;;;;;;30.63;20.48;;;12.10;36.00;;;;;;7358326;19;20011;-63
2022/05/06 00:35:19;;;;;;;32.08;21.58;;;12.00;37.20;;;;;;7359889;19;20107;-64
2022/05/06 00:37:49;;;;;;;34.30;22.33;;;12.10;37.30;;;;;;7363930;19;20086;-64
2022/05/06 00:40:19;;;;;;;29.27;21.17;;;12.00;37.70;;;;;;7355410;19;20627;-64
2022/05/06 00:42:50;;;;;;;30.30;21.33;;;12.10;37.40;;;;;;7358391;19;20019;-64
2022/05/06 00:45:20;;;;;;;30.77;21.38;;;12.10;36.60;;;;;;7376035;19;20057;-64
2022/05/06 00:47:53;;;;;;;34.33;22.50;;;12.10;36.70;;;;;;7352314;19;20020;-64
2022/05/06 00:50:23;;;;;;;31.55;21.55;;;12.10;36.80;;;;;;7348892;19;20494;-64
2022/05/06 00:52:53;;;;;;;33.28;21.83;;;12.10;36.20;;;;;;7359371;19;20015;-64
2022/05/06 00:55:24;;;;;;;30.13;20.90;;;12.10;35.50;;;;;;7361213;19;20032;-64
2022/05/06 00:57:55;;;;;;;31.40;21.52;;;12.10;36.90;;;;;;7362895;19;20011;-64
2022/05/06 01:00:25;;;;;;;31.33;21.70;;;12.10;37.10;;;;;;7377947;19;20025;-64
2022/05/06 01:02:57;;;;;;;31.40;21.20;;;12.10;36.90;;;;;;7358924;19;20007;-64
2022/05/06 01:05:28;;;;;;;31.73;22.05;;;12.10;36.40;;;;;;7360696;19;20006;-65
2022/05/06 01:07:58;;;;;;;27.85;20.27;;;12.10;37.30;;;;;;7362144;19;20098;-64
2022/05/06 01:10:28;;;;;;;31.95;22.00;;;12.10;36.90;;;;;;7357291;19;20030;-64
2022/05/06 01:12:58;;;;;;;32.35;21.13;;;12.10;36.80;;;;;;7360913;19;20020;-64
2022/05/06 01:15:30;;;;;;;27.35;20.45;;;12.10;35.90;;;;;;7381971;19;20018;-64
2022/05/06 01:18:02;;;;;;;28.85;19.67;;;12.00;36.30;;;;;;7360370;19;20385;-64
2022/05/06 01:20:36;;;;;;;28.90;19.73;;;12.10;36.50;;;;;;7358457;19;20048;-64
2022/05/06 01:23:09;;;;;;;33.35;20.45;;;12.10;35.50;;;;;;7362450;19;20031;-64
2022/05/06 01:25:38;;;;;;;28.67;19.67;;;12.10;34.80;;;;;;7360653;19;20009;-64
2022/05/06 01:28:09;;;;;;;30.08;20.42;;;12.10;34.90;;;;;;7358729;19;20007;-64
2022/05/06 01:30:42;;;;;;;34.53;20.35;;;12.10;34.60;;;;;;7362605;19;20018;-65
2022/05/06 01:33:14;;;;;;;30.27;19.92;;;12.10;34.20;;;;;;7381429;19;20042;-64
2022/05/06 01:35:46;;;;;;;31.42;19.90;;;12.10;33.70;;;;;;7359331;19;20011;-64
2022/05/06 01:38:42;;;;;;;29.83;19.85;;;12.20;32.70;;;;;;7358693;19;20091;-64
2022/05/06 01:41:21;;;;;;;28.50;19.15;;;12.20;32.80;;;;;;7359580;19;20392;-64
2022/05/06 01:43:54;;;;;;;30.23;19.90;;;12.10;34.00;;;;;;7361108;19;20013;-64
2022/05/06 01:46:28;;;;;;;27.67;19.40;;;12.10;34.40;;;;;;7361638;19;20017;-64
2022/05/06 01:48:58;;;;;;;35.28;19.58;;;12.10;33.50;;;;;;7357430;19;20045;-64
2022/05/06 01:51:30;;;;;;;29.83;19.55;;;12.20;33.60;;;;;;7376866;19;20014;-64
2022/05/06 01:54:02;;;;;;;30.75;19.27;;;12.10;33.50;;;;;;7359385;19;20871;-64
2022/05/06 01:56:32;;;;;;;28.77;19.35;;;12.20;32.90;;;;;;7360687;19;20015;-64
2022/05/06 01:59:02;;;;;;;27.48;18.63;;;12.20;32.20;;;;;;7356907;19;20017;-64
2022/05/06 02:01:34;;;;;;;29.58;19.13;;;12.10;33.30;;;;;;7364833;19;20006;-64
2022/05/06 02:06:46;;;;;;;31.33;19.17;;;12.10;32.90;;;;;;7368614;19;20006;-65
2022/05/06 02:09:19;;;;;;;32.40;19.65;;;12.10;33.10;;;;;;7383126;19;20021;-64
2022/05/06 02:11:49;;;;;;;27.17;19.08;;;12.10;32.60;;;;;;7363492;19;20026;-64
2022/05/06 02:14:19;;;;;;;29.75;19.38;;;12.00;33.20;;;;;;7364922;19;20095;-64
2022/05/06 02:16:53;;;;;;;27.85;18.70;;;12.10;32.90;;;;;;7368011;19;20003;-64
2022/05/06 02:19:23;;;;;;;27.83;17.63;;;12.00;33.00;;;;;;7363231;19;20014;-64
2022/05/06 02:21:53;;;;;;;29.00;18.40;;;12.00;33.30;;;;;;7363800;19;20014;-64
2022/05/06 02:24:26;;;;;;;24.15;17.27;;;12.10;33.60;;;;;;7381976;19;20021;-64
2022/05/06 02:26:55;;;;;;;27.40;18.95;;;12.00;33.60;;;;;;7357210;19;20015;-64
2022/05/06 02:29:25;;;;;;;28.77;18.70;;;12.00;34.20;;;;;;7361979;19;20010;-64
2022/05/06 02:34:37;;;;;;;23.65;17.30;;;12.00;33.00;;;;;;7360910;19;20014;-64
2022/05/06 02:37:08;;;;;;;26.98;17.58;;;12.00;32.50;;;;;;7366338;19;20107;-64
2022/05/06 02:39:40;;;;;;;27.67;17.73;;;12.00;32.20;;;;;;7383599;19;20018;-67
2022/05/06 02:42:11;;;;;;;27.05;17.52;;;12.10;33.00;;;;;;7385586;19;20034;-64
2022/05/06 02:44:41;;;;;;;25.50;17.63;;;12.10;32.80;;;;;;7364400;19;20039;-64
2022/05/06 02:47:10;;;;;;;27.50;17.25;;;12.10;32.90;;;;;;7367613;19;20011;-64
2022/05/06 02:49:40;;;;;;;27.27;18.23;;;12.10;32.80;;;;;;7361583;19;20078;-64
2022/05/06 02:52:11;;;;;;;28.20;18.35;;;12.00;33.60;;;;;;7363243;19;20014;-64
2022/05/06 02:54:43;;;;;;;25.33;18.83;;;12.00;34.00;;;;;;7364276;19;20767;-65
2022/05/06 02:57:13;;;;;;;26.13;18.75;;;12.00;34.30;;;;;;7389483;19;20014;-64
2022/05/06 02:59:43;;;;;;;27.55;19.45;;;11.90;35.00;;;;;;7360868;19;20018;-64
2022/05/06 03:02:13;;;;;;;28.83;18.05;;;11.90;35.90;;;;;;7362777;19;20010;-64
2022/05/06 03:04:43;;;;;;;26.25;18.88;;;11.90;35.20;;;;;;7365578;19;20092;-64
2022/05/06 03:07:13;;;;;;;28.50;19.00;;;12.00;35.50;;;;;;7367663;19;20010;-64
2022/05/06 03:09:45;;;;;;;25.98;18.55;;;11.90;35.70;;;;;;7362450;19;20014;-64
2022/05/06 03:12:16;;;;;;;28.45;19.58;;;11.90;35.90;;;;;;7383453;19;20010;-64
2022/05/06 03:14:46;;;;;;;26.02;19.13;;;11.90;36.10;;;;;;7363580;19;20739;-64
2022/05/06 03:17:16;;;;;;;33.35;19.48;;;12.00;36.20;;;;;;7366794;19;20347;-64
2022/05/06 03:19:46;;;;;;;24.77;17.85;;;12.00;35.80;;;;;;7360867;19;20101;-64
2022/05/06 03:22:18;;;;;;;27.00;18.38;;;12.00;35.70;;;;;;7360909;19;20058;-64
2022/05/06 03:24:51;;;;;;;24.92;17.73;;;12.00;36.40;;;;;;7364264;19;20645;-64
2022/05/06 03:30:03;;;;;;;21.88;16.52;;;12.10;33.80;;;;;;7360960;19;20043;-64
2022/05/06 03:32:35;;;;;;;22.58;16.10;;;12.10;33.90;;;;;;7362651;19;20485;-64
2022/05/06 03:35:06;;;;;;;20.23;14.77;;;12.10;34.40;;;;;;7365172;19;20085;-64
2022/05/06 03:37:38;;;;;;;19.95;14.20;;;12.00;34.50;;;;;;7365550;19;20545;-65
2022/05/06 03:40:12;;;;;;;19.33;14.15;;;12.00;35.30;;;;;;7361223;19;20018;-64
2022/05/06 03:42:42;;;;;;;20.85;14.77;;;12.00;36.50;;;;;;7364056;19;20007;-64
2022/05/06 03:45:13;;;;;;;21.42;14.80;;;11.90;38.70;;;;;;7384624;19;20347;-64
2022/05/06 03:47:43;;;;;;;21.48;15.13;;;11.80;39.60;;;;;;7365935;19;20010;-64
2022/05/06 03:52:55;;;;;;;22.02;14.82;;;11.60;46.50;;;;;;7362475;19;20011;-63
2022/05/06 03:55:29;;;;;;;20.08;14.98;;;11.40;47.40;;;;;;7363487;19;20039;-62
2022/05/06 03:57:58;;;;;;;22.97;17.07;;;11.40;49.40;;;;;;7365159;19;20020;-63
2022/05/06 04:00:29;;;;;;;20.50;16.20;;;11.30;50.60;;;;;;7381324;19;20659;-63
2022/05/06 04:02:58;;;;;;;26.92;18.50;;;11.40;52.20;;;;;;7362810;19;20017;-63
2022/05/06 04:05:35;;;;;;;22.65;18.08;;;11.40;52.80;;;;;;7363961;19;20086;-64
2022/05/06 04:08:05;;;;;;;28.08;19.48;;;11.40;53.80;;;;;;7362756;19;20003;-64
2022/05/06 04:10:38;;;;;;;25.17;18.95;;;11.40;54.50;;;;;;7359401;19;20042;-63
2022/05/06 04:13:08;;;;;;;23.98;18.75;;;11.40;54.70;;;;;;7363820;19;20012;-63
2022/05/06 04:15:38;;;;;;;26.38;18.48;;;11.30;56.00;;;;;;7383915;19;20017;-63
2022/05/06 04:18:08;;;;;;;28.45;19.25;;;11.30;57.10;;;;;;7359889;19;20010;-63
2022/05/06 04:23:33;;;;;;;24.70;18.35;;;11.10;57.10;;;;;;7361355;19;20106;-63
2022/05/06 04:26:07;;;;;;;27.05;19.42;;;11.10;57.90;;;;;;7363083;19;20010;-63
2022/05/06 04:28:38;;;;;;;26.58;19.83;;;11.10;58.40;;;;;;7358490;19;20589;-64
2022/05/06 04:31:09;;;;;;;27.17;19.13;;;11.10;58.40;;;;;;7361162;19;20011;-62
2022/05/06 04:33:41;;;;;;;28.15;20.15;;;11.10;58.60;;;;;;7374743;19;20010;-64
2022/05/06 04:36:12;;;;;;;30.65;20.13;;;11.10;59.80;;;;;;7385027;19;20082;-64
2022/05/06 04:38:42;;;;;;;32.67;20.85;;;11.10;59.60;;;;;;7357861;19;20462;-64
2022/05/06 04:41:14;;;;;;;27.73;20.30;;;11.10;60.70;;;;;;7360283;19;20010;-64
2022/05/06 04:43:44;;;;;;;26.70;19.73;;;11.10;60.90;;;;;;7363120;19;20121;-64
2022/05/06 04:46:14;;;;;;;28.75;20.45;;;11.10;61.20;;;;;;7363335;19;20077;-63
2022/05/06 04:48:44;;;;;;;27.50;20.27;;;11.10;61.90;;;;;;7357632;19;20028;-63
2022/05/06 04:51:14;;;;;;;26.20;20.52;;;11.20;62.60;;;;;;7382125;19;20366;-63
2022/05/06 04:53:44;;;;;;;29.08;20.50;;;11.10;60.80;;;;;;7361752;19;20007;-63
2022/05/06 04:56:16;;;;;;;29.30;19.95;;;11.10;61.50;;;;;;7363176;19;20079;-62
2022/05/06 04:58:46;;;;;;;23.65;19.00;;;11.10;59.40;;;;;;7357914;19;20021;-64
2022/05/06 05:01:16;;;;;;;34.00;19.90;;;11.10;59.20;;;;;;7358917;19;20006;-64
2022/05/06 05:03:46;;;;;;;27.35;19.23;;;11.20;59.70;;;;;;7360720;19;20041;-62
2022/05/06 05:06:19;;;;;;;25.83;17.63;;;11.20;58.50;;;;;;7383762;19;20003;-63
2022/05/06 05:08:49;;;;;;;24.45;18.00;;;11.10;57.30;;;;;;7356908;19;20021;-62
2022/05/06 05:11:22;;;;;;;24.90;17.98;;;11.10;56.60;;;;;;7359945;19;20019;-63
2022/05/06 05:13:51;;;;;;;26.67;18.75;;;11.20;57.20;;;;;;7359835;19;20014;-63
2022/05/06 05:16:21;;;;;;;26.17;19.25;;;11.20;56.50;;;;;;7361903;19;20090;-63
2022/05/06 05:18:51;;;;;;;28.33;19.85;;;11.20;57.70;;;;;;7356638;19;20017;-64
2022/05/06 05:21:21;;;;;;;32.30;20.90;;;11.30;58.40;;;;;;7380545;19;20470;-63
2022/05/06 05:23:51;;;;;;;30.48;19.80;;;11.20;58.30;;;;;;7358975;19;20030;-63
2022/05/06 05:26:24;;;;;;;28.17;19.40;;;11.20;57.80;;;;;;7361592;19;20494;-63
2022/05/06 05:28:54;;;;;;;28.30;18.93;;;11.20;58.10;;;;;;7354906;19;20454;-63
2022/05/06 05:31:24;;;;;;;26.42;17.33;;;11.30;58.10;;;;;;7359253;19;20010;-63
2022/05/06 05:33:55;;;;;;;28.40;17.58;;;11.30;56.60;;;;;;7360038;19;20031;-63
2022/05/06 05:36:25;;;;;;;30.23;20.25;;;11.30;56.40;;;;;;7388990;19;20421;-63
2022/05/06 05:38:54;;;;;;;26.90;18.75;;;11.40;56.80;;;;;;7362538;19;20024;-63
2022/05/06 05:41:27;;;;;;;26.55;19.13;;;11.40;56.50;;;;;;7366440;19;20003;-64
2022/05/06 05:49:22;;;;;;;25.27;17.98;;;11.30;55.40;;;;;;7362542;19;20027;-64
2022/05/06 05:51:51;;;;;;;26.00;18.08;;;11.40;54.60;;;;;;7364646;19;20007;-64
2022/05/06 05:54:21;;;;;;;25.55;18.88;;;11.40;54.70;;;;;;7388336;19;20561;-64
2022/05/06 05:56:54;;;;;;;21.05;16.92;;;11.40;54.80;;;;;;7369272;19;20014;-64
2022/05/06 05:59:24;;;;;;;23.35;16.77;;;11.40;53.20;;;;;;7358435;19;20015;-63
2022/05/06 06:01:54;;;;;;;23.40;14.95;;;11.40;53.50;;;;;;7365972;19;20085;-64
2022/05/06 06:04:24;;;;;;;19.95;15.20;;;11.40;50.80;;;;;;7366821;19;20007;-63
2022/05/06 06:06:54;;;;;;;20.67;14.40;;;11.40;51.50;;;;;;7368524;19;20070;-64
2022/05/06 06:09:24;;;;;;;20.58;14.80;;;11.30;52.00;;;;;;7383016;19;20011;-64
2022/05/06 06:11:57;;;;;;;17.95;14.20;;;11.30;51.60;;;;;;7364003;19;20101;-63
2022/05/06 06:14:27;;;;;;;19.90;14.77;;;11.30;50.60;;;;;;7365037;19;20536;-63
2022/05/06 06:16:57;;;;;;;19.48;13.85;;;11.30;49.30;;;;;;7368938;19;20150;-64
2022/05/06 06:19:28;;;;;;;19.67;13.80;;;11.30;48.90;;;;;;7362689;19;20015;-64
2022/05/06 06:21:58;;;;;;;17.60;13.15;;;11.40;49.60;;;;;;7364639;19;20470;-64
2022/05/06 06:24:28;;;;;;;18.75;12.60;;;11.40;46.30;;;;;;7386759;19;20022;-63
2022/05/06 06:27:00;;;;;;;19.80;14.20;;;11.40;47.90;;;;;;7366649;19;20014;-63
2022/05/06 06:29:35;;;;;;;16.27;13.05;;;11.40;46.90;;;;;;7360427;19;20150;-64
2022/05/06 06:32:06;;;;;;;20.40;12.88;;;11.40;47.50;;;;;;7362323;19;20014;-63
2022/05/06 06:34:36;;;;;;;20.40;12.93;;;11.40;47.10;;;;;;7364783;19;20493;-64
2022/05/06 06:37:07;;;;;;;17.02;13.15;;;11.50;45.00;;;;;;7367634;19;20430;-64
2022/05/06 06:39:37;;;;;;;20.23;12.10;;;11.50;45.70;;;;;;7382457;19;20014;-64
2022/05/06 06:42:11;;;;;;;16.25;11.88;;;11.40;42.60;;;;;;7363510;19;20010;-64
2022/05/06 06:44:41;;;;;;;16.98;11.85;;;11.50;44.50;;;;;;7363733;19;20028;-64
2022/05/06 06:47:11;;;;;;;19.58;12.88;;;11.50;44.00;;;;;;7365199;19;20014;-64
2022/05/06 06:49:41;;;;;;;22.50;12.13;;;11.60;44.40;;;;;;7360866;19;20505;-64
2022/05/06 06:52:13;;;;;;;15.15;11.82;;;11.50;43.70;;;;;;7363439;19;20775;-63
2022/05/06 06:54:43;;;;;;;16.00;12.10;;;11.50;44.00;;;;;;7363689;19;20018;-64
2022/05/06 06:57:15;;;;;;;17.05;11.20;;;11.50;42.40;;;;;;7389171;19;20034;-63
2022/05/06 06:59:45;;;;;;;13.13;10.48;;;11.50;39.10;;;;;;7360307;19;20022;-63
2022/05/06 07:02:16;;;;;;;16.95;11.65;;;11.60;41.60;;;;;;7362657;19;20011;-63
2022/05/06 07:04:46;;;;;;;17.08;11.73;;;11.60;41.20;;;;;;7363425;19;20015;-64
2022/05/06 07:12:44;;;;;;;13.48;11.43;;;11.70;38.60;;;;;;7364277;19;20057;-65
2022/05/06 07:15:14;;;;;;;16.35;11.85;;;11.70;38.60;;;;;;7383914;19;20018;-63
2022/05/06 07:17:45;;;;;;;16.85;11.80;;;11.60;38.50;;;;;;7365821;19;20471;-64
2022/05/06 07:20:15;;;;;;;16.70;12.45;;;11.70;36.50;;;;;;7359123;19;20195;-63
2022/05/06 07:22:45;;;;;;;18.35;11.75;;;11.70;38.50;;;;;;7365203;19;20082;-63
2022/05/06 07:25:19;;;;;;;16.38;11.60;;;11.80;42.50;;;;;;7363251;19;20024;-63
2022/05/06 07:27:52;;;;;;;17.45;10.82;;;11.90;36.50;;;;;;7365319;19;20010;-63
2022/05/06 07:30:22;;;;;;;13.55;10.85;;;11.90;35.10;;;;;;7379075;19;20025;-63
2022/05/06 07:32:52;;;;;;;16.63;11.05;;;12.10;36.70;;;;;;7363772;19;20126;-64
2022/05/06 07:35:22;;;;;;;13.70;10.25;;;12.10;33.30;;;;;;7363381;19;20010;-64
2022/05/06 07:37:52;;;;;;;14.13;9.77;;;12.10;32.20;;;;;;7365354;19;20020;-63
2022/05/06 07:40:21;;;;;;;19.20;10.10;;;12.10;25.60;;;;;;7357432;19;20014;-62
2022/05/06 07:42:55;;;;;;;16.17;10.38;;;12.10;30.20;;;;;;7362167;19;20473;-64
2022/05/06 07:45:24;;;;;;;15.40;10.40;;;12.40;28.80;;;;;;7382893;19;20010;-63
2022/05/06 07:47:55;;;;;;;12.43;9.68;;;12.50;27.30;;;;;;7365032;19;20015;-63
2022/05/06 07:50:30;;;;;;;13.38;10.50;;;12.50;28.60;;;;;;7358768;19;20019;-62
2022/05/06 07:53:00;;;;;;;13.70;10.07;;;12.70;30.80;;;;;;7364279;19;20804;-62
2022/05/06 07:55:31;;;;;;;14.45;9.43;;;12.60;29.10;;;;;;7362773;19;20022;-64
2022/05/06 07:58:04;;;;;;;12.73;9.52;;;12.60;23.20;;;;;;7360888;19;20081;-63
2022/05/06 08:00:34;;;;;;;15.57;9.13;;;12.80;27.30;;;;;;7382307;19;20082;-62
2022/05/06 08:05:49;;;;;;;11.52;8.52;;;12.60;19.10;;;;;;7362388;19;20017;-62
2022/05/06 08:08:19;;;;;;;14.93;9.57;;;12.80;23.70;;;;;;7359322;19;20097;-64
2022/05/06 08:10:49;;;;;;;10.15;8.95;;;13.00;23.30;;;;;;7360732;19;20078;-62
2022/05/06 08:13:22;;;;;;;10.90;8.63;;;13.10;23.30;;;;;;7363528;19;20066;-62
2022/05/06 08:15:54;;;;;;;12.55;9.25;;;13.00;22.20;;;;;;7361318;19;20033;-63
2022/05/06 08:18:25;;;;;;;10.15;7.97;;;13.10;22.80;;;;;;7380590;19;20587;-63
2022/05/06 08:20:55;;;;;;;11.00;8.13;;;12.90;18.70;;;;;;7360195;19;20007;-64
2022/05/06 08:23:26;;;;;;;13.48;8.50;;;13.00;17.10;;;;;;7362913;19;20017;-64
2022/05/06 08:25:56;;;;;;;11.20;8.18;;;13.20;17.20;;;;;;7361007;19;20667;-63
2022/05/06 08:28:29;;;;;;;13.23;8.32;;;13.20;17.90;;;;;;7358446;19;20010;-63
2022/05/06 08:30:59;;;;;;;12.90;8.57;;;13.20;16.40;;;;;;7360031;19;20003;-63
2022/05/06 08:33:29;;;;;;;8.73;7.72;;;13.20;19.40;;;;;;7383881;19;20019;-63
2022/05/06 08:36:00;;;;;;;11.57;7.75;;;13.40;16.80;;;;;;7362858;19;20029;-63
2022/05/06 08:38:30;;;;;;;11.25;7.95;;;13.40;15.20;;;;;;7358136;19;20038;-63
2022/05/06 08:41:01;;;;;;;11.73;8.13;;;13.50;14.70;;;;;;7360060;19;20006;-63
2022/05/06 08:43:34;;;;;;;12.40;7.88;;;13.60;13.50;;;;;;7361550;19;20007;-62
2022/05/06 08:51:48;;;;;;;11.90;7.90;;;13.70;13.80;;;;;;7357173;19;20025;-62
2022/05/06 08:54:19;;;;;;;13.00;7.97;;;13.60;15.10;;;;;;7383282;19;20091;-62
2022/05/06 08:56:52;;;;;;;17.02;8.02;;;13.80;14.00;;;;;;7361509;19;20251;-62
2022/05/06 08:59:25;;;;;;;18.45;8.23;;;13.90;11.30;;;;;;7357077;19;20018;-62
2022/05/06 09:01:55;;;;;;;12.63;8.55;;;14.00;12.80;;;;;;7358911;19;20011;-62
2022/05/06 09:04:25;;;;;;;12.45;7.50;;;13.80;13.30;;;;;;7361848;19;20074;-62
2022/05/06 09:07:17;;;;;;;13.35;8.20;;;14.10;10.60;;;;;;7361476;19;20015;-63
2022/05/06 09:09:47;;;;;;;10.02;7.60;;;14.20;9.90;;;;;;7360778;19;20092;-63
2022/05/06 09:12:44;;;;;;;13.57;7.93;;;14.50;9.40;;;;;;7387543;19;20010;-63
2022/05/06 09:18:01;;;;;;;13.77;7.78;;;14.50;7.10;;;;;;7366156;19;20025;-63
2022/05/06 09:20:32;;;;;;;11.75;7.63;;;14.60;7.20;;;;;;7365733;19;20466;-62
2022/05/06 09:23:20;;;;;;;18.33;8.20;;;14.80;8.10;;;;;;7368396;19;20021;-62
2022/05/06 09:25:51;;;;;;;12.25;7.55;;;15.10;7.50;;;;;;7365322;19;20604;-62
2022/05/06 09:28:25;;;;;;;11.52;7.47;;;15.30;6.00;;;;;;7362049;19;20013;-62
2022/05/06 09:31:07;;;;;;;12.45;6.95;;;15.30;3.90;;;;;;7368333;19;20047;-61
2022/05/06 09:33:40;;;;;;;13.30;7.05;;;15.30;3.00;;;;;;7386224;19;20631;-62
2022/05/06 09:36:26;;;;;;;13.05;7.00;;;15.60;2.50;;;;;;7369504;19;20034;-63
2022/05/06 09:39:07;;;;;;;8.70;6.60;;;15.80;1.10;;;;;;7361902;19;20054;-63
2022/05/06 09:41:40;;;;;;;8.40;6.40;;;15.60;1.00;;;;;;7366088;19;20010;-64
2022/05/06 09:44:12;;;;;;;11.40;6.55;;;15.90;1.00;;;;;;7364317;19;20015;-63
2022/05/06 09:46:44;;;;;;;12.88;6.82;;;16.00;1.00;;;;;;7368579;19;20129;-64
2022/05/06 09:49:16;;;;;;;9.30;5.68;;;16.20;1.00;;;;;;7361479;19;20011;-63
2022/05/06 09:52:11;;;;;;;9.15;6.25;;;16.30;1.00;;;;;;7367529;19;20014;-63
2022/05/06 09:54:44;;;;;;;7.03;5.25;;;16.40;1.00;;;;;;7363526;19;20091;-63
2022/05/06 09:57:15;;;;;;;6.95;4.97;;;16.90;1.00;;;;;;7388739;19;20019;-63
2022/05/06 09:59:45;;;;;;;9.48;5.28;;;16.90;1.00;;;;;;7362647;19;20020;-64
2022/05/06 10:02:18;;;;;;;5.80;4.82;;;17.00;1.00;;;;;;7367375;19;20095;-63
2022/05/06 10:04:50;;;;;;;10.50;5.35;;;17.00;1.00;;;;;;7365280;19;20018;-64
2022/05/06 10:07:22;;;;;;;7.57;4.43;;;17.20;1.00;;;;;;7366775;19;20079;-63
2022/05/06 10:10:01;;;;;;;8.68;4.43;;;17.20;1.00;;;;;;7361860;19;20013;-64
2022/05/06 10:12:42;;;;;;;7.55;4.60;;;17.50;1.00;;;;;;7386744;19;20010;-63
2022/05/06 10:15:14;;;;;;;6.60;4.25;;;17.20;1.00;;;;;;7363928;19;20007;-63
2022/05/06 10:17:54;;;;;;;8.43;5.00;;;17.10;1.00;;;;;;7366199;19;20027;-63
2022/05/06 10:21:01;;;;;;;7.90;5.20;;;17.30;1.00;;;;;;7360366;19;20003;-63
2022/05/06 10:23:48;;;;;;;8.07;4.70;;;17.50;1.00;;;;;;7366393;19;20031;-62
2022/05/06 10:26:45;;;;;;;7.95;4.97;;;17.70;1.00;;;;;;7367618;19;20107;-63
2022/05/06 10:32:59;;;;;;;8.10;4.95;;;17.60;1.00;;;;;;7362328;19;20006;-64
2022/05/06 10:35:47;;;;;;;8.00;5.15;;;17.70;1.00;;;;;;7362811;19;20014;-63
2022/05/06 10:38:25;;;;;;;7.90;4.57;;;17.50;1.00;;;;;;7361936;19;20002;-64
2022/05/06 10:41:02;;;;;;;5.55;4.32;;;17.70;1.00;;;;;;7365817;19;20073;-63
2022/05/06 10:43:56;;;;;;;7.40;5.38;;;17.90;1.00;;;;;;7365835;19;20014;-63
2022/05/06 10:46:37;;;;;;;10.23;5.45;;;17.40;1.00;;;;;;7364869;19;20092;-63
2022/05/06 10:49:50;;;;;;;8.15;5.22;;;17.50;1.00;;;;;;7360029;19;20367;-63
2022/05/06 10:52:44;;;;;;;8.15;4.95;;;17.80;1.00;;;;;;7356646;19;20010;-64
2022/05/06 10:55:19;;;;;;;10.90;4.63;;;18.30;1.00;;;;;;7359803;19;20021;-63
2022/05/06 10:57:54;;;;;;;9.85;4.93;;;18.40;1.00;;;;;;7365539;19;20081;-65
2022/05/06 11:00:27;;;;;;;10.20;4.55;;;18.20;1.00;;;;;;7380306;19;20075;-64
2022/05/06 11:02:59;;;;;;;8.88;4.72;;;17.80;1.00;;;;;;7363781;19;20018;-63
2022/05/06 11:05:30;;;;;;;6.10;5.28;;;17.70;1.00;;;;;;7360925;19;20077;-63
2022/05/06 11:08:07;;;;;;;8.95;5.13;;;17.70;1.00;;;;;;7363201;19;20662;-63
2022/05/06 11:10:39;;;;;;;6.07;4.35;;;17.40;1.00;;;;;;7359160;19;20070;-64
2022/05/06 11:13:29;;;;;;;8.48;4.47;;;17.60;1.00;;;;;;7362422;19;21662;-63
2022/05/06 11:16:07;;;;;;;6.60;4.45;;;17.70;1.00;;;;;;7360398;19;20037;-63
2022/05/06 11:18:44;;;;;;;7.43;4.88;;;17.70;1.00;;;;;;7380951;19;20111;-64
2022/05/06 11:21:24;;;;;;;6.18;4.80;;;18.20;1.00;;;;;;7362137;19;20346;-64
2022/05/06 11:23:56;;;;;;;5.25;4.75;;;18.20;1.00;;;;;;7360350;19;20392;-63
2022/05/06 11:26:27;;;;;;;5.38;4.28;;;18.00;1.00;;;;;;7363457;19;20014;-64
2022/05/06 11:29:03;;;;;;;7.18;4.68;;;18.00;1.00;;;;;;7357776;19;20002;-64
2022/05/06 11:31:34;;;;;;;7.00;4.07;;;18.00;1.00;;;;;;7363076;19;20474;-63
2022/05/06 11:34:06;;;;;;;8.30;5.30;;;17.90;1.00;;;;;;7359918;19;20021;-64
2022/05/06 11:36:37;;;;;;;11.45;4.80;;;18.00;1.00;;;;;;7388138;19;20017;-63
2022/05/06 11:39:16;;;;;;;6.57;4.40;;;17.60;1.00;;;;;;7359382;19;20014;-63
2022/05/06 11:41:45;;;;;;;6.70;4.80;;;17.70;1.00;;;;;;7364476;19;20129;-63
2022/05/06 11:47:27;;;;;;;5.78;4.68;;;17.70;1.00;;;;;;7360817;19;20399;-64
2022/05/06 11:49:48;;;;;;;6.57;4.10;;;18.00;1.00;;;;;;7357833;19;20074;-64
2022/05/06 11:52:18;;;;;;;9.10;4.43;;;18.80;1.00;;;;;;7362600;19;20022;-64
2022/05/06 11:54:51;;;;;;;11.95;5.10;;;18.40;1.00;;;;;;7357162;19;20092;-64
2022/05/06 11:57:21;;;;;;;6.10;4.22;;;18.10;1.00;;;;;;7381082;19;20360;-63
2022/05/06 11:59:51;;;;;;;6.95;5.00;;;18.20;1.00;;;;;;7356243;19;20015;-63
2022/05/06 12:02:21;;;;;;;5.32;4.50;;;18.20;1.00;;;;;;7361593;19;20380;-65
2022/05/06 12:04:51;;;;;;;11.73;4.60;;;18.20;1.00;;;;;;7358729;19;20026;-65
2022/05/06 12:07:21;;;;;;;7.80;4.70;;;18.30;1.00;;;;;;7362582;19;20010;-64
2022/05/06 12:09:58;;;;;;;7.53;4.85;;;18.10;1.00;;;;;;7357363;19;20029;-64
2022/05/06 12:12:28;;;;;;;8.10;4.55;;;18.10;1.00;;;;;;7382989;19;20033;-64
2022/05/06 12:15:12;;;;;;;5.28;4.13;;;18.60;1.00;;;;;;7356815;19;20413;-64
2022/05/06 12:17:41;;;;;;;6.35;4.68;;;18.80;1.00;;;;;;7360401;19;20020;-64
2022/05/06 12:20:33;;;;;;;7.10;3.80;;;18.60;1.00;;;;;;7354230;19;20474;-64
2022/05/06 12:23:03;;;;;;;5.97;4.00;;;18.80;1.00;;;;;;7363284;19;20608;-64
2022/05/06 12:25:39;;;;;;;6.68;3.72;;;18.80;1.00;;;;;;7359436;19;20031;-64
2022/05/06 12:28:11;;;;;;;7.38;4.03;;;19.00;1.00;;;;;;7360956;19;20015;-64
2022/05/06 12:30:41;;;;;;;7.45;4.07;;;19.40;1.00;;;;;;7362670;19;20118;-63
2022/05/06 12:33:13;;;;;;;5.60;4.55;;;19.20;1.00;;;;;;7384421;19;20018;-64
2022/05/06 12:35:57;;;;;;;6.28;4.60;;;19.00;1.00;;;;;;7359226;19;20037;-65
2022/05/06 12:38:27;;;;;;;6.88;4.40;;;18.90;1.00;;;;;;7357481;19;20006;-63
2022/05/06 12:41:00;;;;;;;6.70;4.38;;;18.50;1.00;;;;;;7362584;19;20451;-63
2022/05/06 12:43:31;;;;;;;7.57;4.25;;;18.70;1.00;;;;;;7360753;19;20018;-64
2022/05/06 12:46:01;;;;;;;8.57;5.00;;;19.20;1.00;;;;;;7358180;19;20132;-63
2022/05/06 12:51:14;;;;;;;4.13;3.58;;;19.10;1.00;;;;;;7360648;19;20881;-64
2022/05/06 12:53:43;;;;;;;9.35;4.45;;;19.30;1.00;;;;;;7358859;19;20003;-63
2022/05/06 12:56:21;;;;;;;11.02;4.53;;;19.20;1.00;;;;;;7361714;19;20492;-64
2022/05/06 12:58:51;;;;;;;12.98;4.70;;;19.20;1.00;;;;;;7355620;19;20010;-63
2022/05/06 13:01:22;;;;;;;4.18;3.47;;;19.20;1.00;;;;;;7360207;19;20014;-64
2022/05/06 13:03:52;;;;;;;6.72;3.60;;;19.20;1.00;;;;;;7359235;19;20491;-63
2022/05/06 13:06:22;;;;;;;5.72;4.40;;;19.50;1.00;;;;;;7381834;19;20002;-64
2022/05/06 13:08:52;;;;;;;5.82;4.30;;;19.00;1.00;;;;;;7356156;19;20163;-65
2022/05/06 13:11:24;;;;;;;6.07;4.78;;;19.20;1.00;;;;;;7361884;19;20019;-64
2022/05/06 13:13:54;;;;;;;9.30;5.00;;;19.20;1.00;;;;;;7359241;19;20015;-64
2022/05/06 13:16:24;;;;;;;15.68;5.20;;;19.40;1.00;;;;;;7361198;19;20798;-64
2022/05/06 13:18:54;;;;;;;6.47;5.32;;;19.20;1.00;;;;;;7355961;19;20025;-65
2022/05/06 13:21:24;;;;;;;7.30;4.35;;;19.50;1.00;;;;;;7381691;19;20071;-65
2022/05/06 13:24:00;;;;;;;6.43;4.70;;;19.60;1.00;;;;;;7358792;19;20137;-64
2022/05/06 13:26:33;;;;;;;7.38;4.30;;;19.40;1.00;;;;;;7360049;19;20548;-65
2022/05/06 13:29:03;;;;;;;7.68;4.70;;;19.20;1.00;;;;;;7354794;19;20074;-65
2022/05/06 13:31:34;;;;;;;7.97;4.70;;;19.20;1.00;;;;;;7359595;19;20014;-64
2022/05/06 13:34:04;;;;;;;6.57;4.63;;;19.00;1.00;;;;;;7357885;19;20078;-64
2022/05/06 13:36:34;;;;;;;7.85;4.40;;;19.30;1.00;;;;;;7381198;19;20022;-64
2022/05/06 13:39:04;;;;;;;10.35;5.40;;;19.20;1.00;;;;;;7352356;19;20011;-65
2022/05/06 13:41:37;;;;;;;6.60;4.88;;;19.20;1.00;;;;;;7358411;19;20078;-64
2022/05/06 13:44:07;;;;;;;6.05;4.25;;;19.30;1.00;;;;;;7356270;19;20015;-64
2022/05/06 13:46:37;;;;;;;8.02;3.85;;;19.80;1.00;;;;;;7358355;19;20017;-64
2022/05/06 13:49:09;;;;;;;7.75;4.55;;;19.40;1.00;;;;;;7355845;19;20425;-64